Linthicum Heights, MD

7:13 PM EDT on June 29, 2015 (GMT -0400)
Garland | | Change Station
CLOSE
Current Station
Personal Weather Station
Location: Glen Burnie, MD
Elevation: 108 ft
Nearby Weather Stations

Elev 108 ft 39.19 °N, 76.64 °W | Updated 16 seconds ago

Partly Cloudy
Partly Cloudy
82.0 °F
Feels Like 81 °F
N
2.7
Wind Variable Wind from East
Gusts 5.8 mph

Today
High -- | Low -- °F
--% Chance of Precip.
Yesterday
High -- | Low -- °F
Precip. -- in
5:43 AM 8:37 PM
Waxing Gibbous, 95% visible
Pressure 29.91 in
Visibility 10.0 miles
Clouds Few 8000 ft
Heat Index 81 °F
Dew Point 55 °F
Humidity 39%
Rainfall 0.00 in
Snow Depth Not available.
UV 1 out of 12
Pollen 5.20 out of 12
Air Quality Not available.
Flu Activity Sporadic
METAR KBWI 292254Z 19004KT 10SM FEW080 27/11 A2991 RMK AO2 SLP128 T02670111

More Conditions Fewer Conditions

Pressure 29.91 in
Visibility 10.0 miles
Clouds Few 8000 ft
Heat Index 81 °F
Dew Point 55 °F
Humidity 39%
Rainfall 0.00 in
Snow Depth Not available.
UV 1 out of 12
Pollen 5.20 out of 12
Air Quality Not available.
Flu Activity Sporadic
METAR KBWI 292254Z 19004KT 10SM FEW080 27/11 A2991 RMK AO2 SLP128 T02670111

More Conditions Fewer Conditions

10-Day Weather Forecast

×

Almanac

Astronomy

Jun. 29, 2015 Rise Set
Actual Time
Civil Twilight
Nautical Twilight
Astronomical Twilight
Moon
Length of Visible Light
Length of Day
Tomorrow will be .
, % of the Moon is Illuminated

Today's Extremes

State Highs State Lows

Community

WunderPhotos

Upload Photos

1,833,876 photos uploaded!

WunderBlogs® & News

Nearby

Air Quality

  Air Quality AQ Index Pollutant
Not available.

Snow Depth

Station Depth Elevation

Earthquake Activity

City Distance Mag. Time & Date
Minimum magnitude displayed is 2.5.

Coastal Water Temperatures

Place Temperature

Stations

Nearby Weather Stations

Station Location Temp. Windchill Dew Point Humidity Wind Precip. Elev Updated Type